Time;durP1;ratioP1;P1;durP2;ratioP2;P2;SDS_P1;SDS_P2;PMS_P1;PMS_P2;Temp;Humidity;BMP_temperature;BMP_pressure;BME280_temperature;BME280_humidity;BME280_pressure;Samples;Min_cycle;Max_cycle;Signal;HPM_P1;HPM_P2
2022/09/25 00:00:59;;;;;;;41.42;25.38;;;;;;;7.51;100.00;100130.63;5016416;28;20052;-72
2022/09/25 00:03:28;;;;;;;43.35;24.70;;;;;;;7.50;100.00;100129.81;5014631;28;20099;-74
2022/09/25 00:06:04;;;;;;;44.42;24.73;;;;;;;7.47;100.00;100135.69;4997579;28;20046;-74
2022/09/25 00:08:41;;;;;;;40.10;23.65;;;;;;;7.50;100.00;100137.56;5014910;28;20466;-73
2022/09/25 00:11:09;;;;;;;48.47;26.50;;;;;;;7.48;100.00;100135.19;5014634;28;20082;-74
2022/09/25 00:13:38;;;;;;;47.22;25.58;;;;;;;7.45;100.00;100132.50;5014968;28;20034;-74
2022/09/25 00:16:08;;;;;;;41.67;24.38;;;;;;;7.41;100.00;100129.84;4997386;28;20034;-73
2022/09/25 00:21:18;;;;;;;40.47;23.92;;;;;;;7.37;100.00;100126.34;5014866;28;20129;-74
2022/09/25 00:23:44;;;;;;;43.65;23.38;;;;;;;7.34;100.00;100127.31;5013912;28;20113;-72
2022/09/25 00:26:12;;;;;;;36.70;23.17;;;;;;;7.32;100.00;100131.91;5014756;28;20418;-73
2022/09/25 00:28:39;;;;;;;40.20;24.50;;;;;;;7.28;100.00;100132.03;4981809;28;20057;-72
2022/09/25 00:31:07;;;;;;;39.42;23.27;;;;;;;7.27;100.00;100121.97;4998111;28;20045;-72
2022/09/25 00:33:33;;;;;;;41.03;25.45;;;;;;;7.26;100.00;100130.94;4982068;28;20044;-72
2022/09/25 00:36:08;;;;;;;40.58;24.40;;;;;;;7.26;100.00;100133.78;4998357;28;20402;-72
2022/09/25 00:38:34;;;;;;;43.67;25.10;;;;;;;7.24;100.00;100128.56;4982045;28;20107;-74
2022/09/25 00:41:00;;;;;;;41.22;23.55;;;;;;;7.22;100.00;100128.28;4998280;28;20048;-73
2022/09/25 00:43:38;;;;;;;39.65;23.60;;;;;;;7.20;100.00;100121.47;5014355;28;20030;-72
2022/09/25 00:46:16;;;;;;;43.78;22.75;;;;;;;7.16;100.00;100120.84;5014622;28;20029;-73
2022/09/25 00:48:49;;;;;;;41.72;22.95;;;;;;;7.12;100.00;100121.03;5011349;28;20045;-73
2022/09/25 00:51:16;;;;;;;39.00;23.95;;;;;;;7.05;100.00;100110.75;4981875;28;20487;-74
2022/09/25 00:53:50;;;;;;;46.28;23.88;;;;;;;7.07;100.00;100121.66;5013979;28;20025;-73
2022/09/25 00:56:21;;;;;;;39.92;25.85;;;;;;;7.02;100.00;100116.59;5015522;28;20053;-73
2022/09/25 00:58:47;;;;;;;45.75;26.40;;;;;;;7.02;100.00;100117.38;4996438;28;20494;-74
2022/09/25 01:01:16;;;;;;;43.55;25.02;;;;;;;7.03;100.00;100118.16;4996362;28;20112;-73
2022/09/25 01:03:47;;;;;;;45.92;26.65;;;;;;;6.99;100.00;100111.84;5013776;28;20475;-74
2022/09/25 01:06:13;;;;;;;45.60;27.00;;;;;;;6.97;100.00;100105.88;4996165;28;20026;-73
2022/09/25 01:08:39;;;;;;;44.42;28.23;;;;;;;7.00;100.00;100119.91;5012579;28;20383;-72
2022/09/25 01:11:05;;;;;;;43.40;27.17;;;;;;;6.99;100.00;100114.69;4996251;28;20341;-73
2022/09/25 01:13:30;;;;;;;41.72;25.55;;;;;;;6.99;100.00;100118.31;5012633;28;20457;-73
2022/09/25 01:16:08;;;;;;;40.10;24.58;;;;;;;6.99;100.00;100117.53;5014226;28;20021;-73
2022/09/25 01:18:52;;;;;;;40.72;25.83;;;;;;;6.99;100.00;100117.53;5012478;28;20104;-73
2022/09/25 01:21:32;;;;;;;37.10;25.00;;;;;;;7.01;100.00;100112.16;5012571;28;20398;-73
2022/09/25 01:24:23;;;;;;;39.15;24.40;;;;;;;7.00;100.00;100114.22;5012242;28;20037;-73
2022/09/25 01:27:10;;;;;;;51.60;29.25;;;;;;;7.00;100.00;100117.06;5012225;28;20057;-74
2022/09/25 01:29:57;;;;;;;46.75;30.85;;;;;;;7.00;100.00;100119.09;5012376;28;20061;-72
2022/09/25 01:32:31;;;;;;;45.83;29.13;;;;;;;6.98;100.00;100116.72;5012752;28;20390;-75
2022/09/25 01:35:17;;;;;;;50.92;28.17;;;;;;;6.99;100.00;100106.16;5013444;28;20073;-74
2022/09/25 01:37:58;;;;;;;40.17;26.70;;;;;;;6.94;100.00;100095.44;5012349;28;20028;-72
2022/09/25 01:40:43;;;;;;;41.42;25.60;;;;;;;6.99;100.00;100109.78;5012117;28;20054;-73
2022/09/25 01:43:13;;;;;;;50.17;27.40;;;;;;;7.00;100.00;100102.06;5013297;28;20025;-74
2022/09/25 01:46:07;;;;;;;44.97;27.38;;;;;;;7.00;100.00;100116.28;4995476;28;20462;-73
2022/09/25 01:48:35;;;;;;;42.80;25.17;;;;;;;6.82;100.00;100091.50;5013324;28;20026;-74
2022/09/25 01:51:14;;;;;;;43.33;27.33;;;;;;;6.97;100.00;100117.22;5013163;28;20113;-73
2022/09/25 01:53:54;;;;;;;40.95;23.90;;;;;;;6.94;100.00;100107.59;5011788;28;20108;-73
2022/09/25 01:56:59;;;;;;;38.33;23.20;;;;;;;6.95;100.00;100114.06;5013290;28;20021;-75
2022/09/25 01:59:57;;;;;;;35.20;22.40;;;;;;;6.91;100.00;100113.44;5013099;28;20037;-73
2022/09/25 02:02:26;;;;;;;37.38;22.50;;;;;;;6.85;100.00;100115.31;5011676;28;20075;-73
2022/09/25 02:04:55;;;;;;;37.95;22.25;;;;;;;6.85;100.00;100118.94;5012356;28;20479;-73
2022/09/25 02:07:30;;;;;;;36.63;22.20;;;;;;;6.87;100.00;100109.97;5012983;28;20489;-73
2022/09/25 02:10:04;;;;;;;36.25;22.48;;;;;;;6.88;100.00;100114.38;4997129;28;20486;-72
2022/09/25 02:12:39;;;;;;;35.33;21.17;;;;;;;6.88;100.00;100120.81;4996728;28;20107;-72
2022/09/25 02:15:11;;;;;;;38.15;21.50;;;;;;;6.87;100.00;100112.78;4996309;28;20521;-72
2022/09/25 02:20:49;;;;;;;37.58;22.00;;;;;;;6.85;100.00;100115.31;5013335;28;20045;-75
2022/09/25 02:23:38;;;;;;;38.20;21.90;;;;;;;6.85;100.00;100110.41;5012411;28;20057;-73
2022/09/25 02:26:10;;;;;;;39.00;23.98;;;;;;;6.84;100.00;100119.41;5011410;28;20034;-75
2022/09/25 02:28:42;;;;;;;38.63;22.63;;;;;;;6.79;100.00;100108.66;5012856;28;20119;-74
2022/09/25 02:31:08;;;;;;;;;;;;;;;6.77;100.00;100112.00;4995559;28;20041;-74
2022/09/25 02:33:37;;;;;;;40.72;23.85;;;;;;;6.71;100.00;100113.09;5011492;28;20279;-74
2022/09/25 02:36:16;;;;;;;39.78;23.23;;;;;;;6.71;100.00;100113.88;5011711;28;20030;-72
2022/09/25 02:38:41;;;;;;;40.63;24.73;;;;;;;6.68;100.00;100109.16;4978914;28;20111;-73
2022/09/25 02:41:08;;;;;;;44.90;25.05;;;;;;;6.66;100.00;100109.63;5013061;28;20076;-74
2022/09/25 02:43:51;;;;;;;36.17;22.55;;;;;;;6.64;100.00;100102.81;5013835;28;20030;-73
2022/09/25 02:46:40;;;;;;;38.97;22.13;;;;;;;6.60;100.00;100105.81;5013314;28;20033;-73
2022/09/25 02:49:20;;;;;;;34.03;20.83;;;;;;;6.56;100.00;100107.22;5005878;28;20041;-74
2022/09/25 02:52:21;;;;;;;35.88;20.67;;;;;;;6.53;100.00;100111.03;4995190;28;20076;-73
2022/09/25 02:54:55;;;;;;;32.33;19.85;;;;;;;6.48;100.00;100112.44;5005266;28;20041;-74
2022/09/25 02:58:01;;;;;;;31.80;19.20;;;;;;;6.47;100.00;100110.06;5012918;28;20141;-75
2022/09/25 03:00:27;;;;;;;38.15;21.40;;;;;;;6.44;100.00;100108.94;5004551;28;20038;-74
2022/09/25 03:02:58;;;;;;;37.95;21.77;;;;;;;6.42;100.00;100100.09;4995740;28;20030;-73
2022/09/25 03:05:25;;;;;;;35.90;21.05;;;;;;;6.39;100.00;100101.03;4981337;28;20030;-73
2022/09/25 03:10:45;;;;;;;31.42;20.65;;;;;;;6.34;100.00;100093.13;4998691;28;20490;-73
2022/09/25 03:13:21;;;;;;;36.58;22.45;;;;;;;6.31;100.00;100094.09;5012030;28;20083;-73
2022/09/25 03:16:24;;;;;;;31.85;20.13;;;;;;;6.25;100.00;100084.56;5012143;28;20029;-73
2022/09/25 03:18:50;;;;;;;32.58;20.75;;;;;;;6.12;100.00;100064.84;5009650;28;20073;-73
2022/09/25 03:21:34;;;;;;;39.58;20.60;;;;;;;6.24;100.00;100088.66;5012324;28;20033;-74
2022/09/25 03:24:01;;;;;;;30.40;20.25;;;;;;;6.19;100.00;100095.75;5012352;28;20395;-73
2022/09/25 03:26:27;;;;;;;40.83;23.20;;;;;;;6.20;100.00;100088.03;4998775;28;20037;-74
2022/09/25 03:28:53;;;;;;;34.22;21.02;;;;;;;6.19;100.00;100089.28;5015681;28;20049;-73
2022/09/25 03:31:20;;;;;;;31.38;21.38;;;;;;;6.18;100.00;100093.41;4983175;28;20471;-73
2022/09/25 03:33:46;;;;;;;37.72;20.92;;;;;;;6.17;100.00;100089.75;4999355;28;20057;-73
2022/09/25 03:36:22;;;;;;;34.90;21.00;;;;;;;6.19;100.00;100090.06;5015548;28;20033;-73
2022/09/25 03:38:49;;;;;;;33.90;22.10;;;;;;;6.18;100.00;100082.84;4983359;28;20033;-74
2022/09/25 03:41:20;;;;;;;32.92;21.13;;;;;;;6.15;100.00;100083.75;4983083;28;20470;-74
2022/09/25 03:43:50;;;;;;;34.00;20.93;;;;;;;6.16;100.00;100085.34;5016751;28;20057;-73
2022/09/25 03:46:25;;;;;;;36.67;20.38;;;;;;;6.16;100.00;100093.84;4999378;28;20049;-73
2022/09/25 03:48:52;;;;;;;31.52;21.38;;;;;;;6.14;100.00;100093.53;5015395;28;20485;-73
2022/09/25 03:51:27;;;;;;;34.28;21.80;;;;;;;6.13;100.00;100096.84;4999086;28;20030;-73
2022/09/25 03:53:55;;;;;;;38.10;22.73;;;;;;;6.13;100.00;100096.84;5016758;28;20026;-73
2022/09/25 03:56:24;;;;;;;34.35;20.98;;;;;;;6.11;100.00;100088.00;5015375;28;20032;-74
2022/09/25 03:58:51;;;;;;;31.02;19.70;;;;;;;6.11;100.00;100091.63;4982909;28;20116;-73
2022/09/25 04:01:20;;;;;;;33.83;21.00;;;;;;;6.07;100.00;100078.84;4998864;28;20065;-72
2022/09/25 04:03:47;;;;;;;33.03;20.23;;;;;;;6.09;100.00;100082.03;5015429;28;20057;-73
2022/09/25 04:06:17;;;;;;;39.13;22.00;;;;;;;6.08;100.00;100083.28;4998935;28;20044;-73
2022/09/25 04:08:45;;;;;;;34.38;21.48;;;;;;;6.05;100.00;100084.19;5015018;28;20033;-74
2022/09/25 04:11:11;;;;;;;27.38;19.50;;;;;;;6.00;100.00;100079.91;5014985;28;20307;-73
2022/09/25 04:13:40;;;;;;;33.60;21.63;;;;;;;6.04;100.00;100082.63;5015806;28;20383;-75
2022/09/25 04:16:06;;;;;;;38.35;21.27;;;;;;;6.03;100.00;100081.84;5013696;28;20122;-76
2022/09/25 04:18:33;;;;;;;33.45;20.15;;;;;;;5.99;100.00;100066.22;5013646;28;20036;-73
2022/09/25 04:21:24;;;;;;;30.35;20.48;;;;;;;6.04;100.00;100088.31;4994659;28;20136;-73
2022/09/25 04:26:38;;;;;;;32.47;19.60;;;;;;;5.98;100.00;100081.66;5015941;28;20129;-73
2022/09/25 04:29:04;;;;;;;31.27;19.27;;;;;;;5.91;100.00;100076.25;5014194;28;20077;-74
2022/09/25 04:31:30;;;;;;;27.70;18.65;;;;;;;5.95;100.00;100088.25;5015918;28;20121;-72
2022/09/25 04:33:55;;;;;;;29.13;18.60;;;;;;;5.94;100.00;100089.53;4998467;28;20058;-74
2022/09/25 04:36:22;;;;;;;30.63;18.52;;;;;;;5.91;100.00;100079.88;5014055;28;20022;-74
2022/09/25 04:38:48;;;;;;;31.70;19.77;;;;;;;5.92;100.00;100083.53;4997881;28;20052;-76
2022/09/25 04:41:18;;;;;;;30.20;19.42;;;;;;;5.91;100.00;100077.06;4998724;28;20475;-73
2022/09/25 04:43:45;;;;;;;30.27;19.42;;;;;;;5.98;100.00;100084.50;5014656;28;20482;-73
2022/09/25 04:46:13;;;;;;;31.50;19.27;;;;;;;5.97;100.00;100086.53;5014167;28;20061;-73
2022/09/25 04:48:44;;;;;;;31.70;19.25;;;;;;;5.97;100.00;100095.03;4998197;28;20079;-74
2022/09/25 04:51:09;;;;;;;29.48;18.15;;;;;;;5.93;100.00;100090.78;4998199;28;20029;-74
2022/09/25 04:53:35;;;;;;;33.60;18.90;;;;;;;5.92;100.00;100089.97;5014424;28;20029;-72
2022/09/25 04:56:10;;;;;;;30.48;20.02;;;;;;;5.95;100.00;100091.09;4997966;28;20018;-72
2022/09/25 04:58:37;;;;;;;34.05;18.73;;;;;;;5.90;100.00;100080.34;5014306;28;20160;-73
2022/09/25 05:01:07;;;;;;;28.77;19.20;;;;;;;5.95;100.00;100088.25;5014119;28;20140;-74
2022/09/25 05:03:33;;;;;;;28.48;18.75;;;;;;;5.95;100.00;100089.03;4997890;28;20095;-73
2022/09/25 05:05:59;;;;;;;32.83;19.27;;;;;;;5.94;100.00;100087.47;5013856;28;20062;-72
2022/09/25 05:08:35;;;;;;;29.25;18.42;;;;;;;5.99;100.00;100092.50;4997668;28;20022;-73
2022/09/25 05:11:03;;;;;;;36.30;18.85;;;;;;;5.97;100.00;100080.88;4997609;28;20426;-72
2022/09/25 05:13:29;;;;;;;28.60;18.80;;;;;;;6.00;100.00;100093.31;5013930;28;20030;-74
2022/09/25 05:15:56;;;;;;;30.58;20.25;;;;;;;5.97;100.00;100088.59;4997540;28;20018;-73
2022/09/25 05:18:23;;;;;;;27.98;18.08;;;;;;;5.98;100.00;100090.97;5013835;28;20048;-73
2022/09/25 05:20:49;;;;;;;30.65;18.67;;;;;;;6.02;100.00;100090.81;5013852;28;20033;-74
2022/09/25 05:23:15;;;;;;;28.17;17.95;;;;;;;6.07;100.00;100093.81;5013858;28;20053;-73
2022/09/25 05:25:41;;;;;;;26.95;17.40;;;;;;;6.14;100.00;100087.09;5013554;28;20061;-73
2022/09/25 05:28:07;;;;;;;33.30;19.80;;;;;;;6.22;100.00;100094.03;5013376;28;20533;-74
2022/09/25 05:30:35;;;;;;;31.33;18.33;;;;;;;6.30;100.00;100091.72;5013721;28;20057;-74
2022/09/25 05:33:01;;;;;;;29.20;18.25;;;;;;;6.39;100.00;100095.34;4997365;28;20069;-73
2022/09/25 05:35:30;;;;;;;27.25;18.17;;;;;;;6.49;100.00;100093.31;5013828;28;20022;-74
2022/09/25 05:37:57;;;;;;;29.98;18.60;;;;;;;6.59;100.00;100098.56;5013546;28;20026;-74
2022/09/25 05:40:24;;;;;;;29.67;18.08;;;;;;;6.70;100.00;100097.31;5014692;28;20026;-74
2022/09/25 05:42:50;;;;;;;28.95;18.27;;;;;;;6.82;100.00;100094.34;4996944;28;20548;-73
2022/09/25 05:45:19;;;;;;;23.92;16.00;;;;;;;6.95;100.00;100088.50;4981136;28;20045;-73
2022/09/25 05:48:01;;;;;;;27.70;19.08;;;;;;;7.09;100.00;100085.00;4980440;28;20033;-73
2022/09/25 05:50:27;;;;;;;;;;;;;;;7.51;100.00;100082.28;5013267;28;20025;-73
2022/09/25 05:52:57;;;;;;;27.00;15.98;;;;;;;8.81;100.00;100080.69;4996745;28;19914;-72
2022/09/25 05:55:24;;;;;;;23.63;14.73;;;;;;;10.44;100.00;100074.50;4996805;28;20052;-73
2022/09/25 05:57:58;;;;;;;27.48;16.10;;;;;;;12.08;100.00;100073.75;4980521;28;20036;-72
2022/09/25 06:00:26;;;;;;;27.77;15.30;;;;;;;13.55;100.00;100073.44;4997327;28;20032;-73
2022/09/25 06:02:54;;;;;;;23.05;14.68;;;;;;;14.86;100.00;100077.28;5014587;28;20385;-73
2022/09/25 06:05:21;;;;;;;23.73;14.30;;;;;;;16.06;100.00;100066.88;4996580;28;20072;-74
2022/09/25 06:07:51;;;;;;;19.73;14.02;;;;;;;17.14;100.00;100071.78;5014412;28;20022;-72
2022/09/25 06:10:19;;;;;;;20.55;14.07;;;;;;;18.08;98.91;100070.38;4980401;28;20434;-74
2022/09/25 06:12:45;;;;;;;21.40;14.82;;;;;;;18.84;91.33;100076.66;4980546;28;20025;-73
2022/09/25 06:15:10;;;;;;;17.67;13.82;;;;;;;19.44;84.19;100085.44;5014345;28;20025;-73
2022/09/25 06:17:38;;;;;;;17.75;13.25;;;;;;;20.15;78.76;100079.28;5014093;28;20029;-73
2022/09/25 06:20:04;;;;;;;17.73;14.02;;;;;;;20.96;74.13;100075.31;5012776;28;20029;-73
2022/09/25 06:22:31;;;;;;;23.98;14.38;;;;;;;21.64;66.69;100087.28;4996501;28;20574;-73
2022/09/25 06:24:56;;;;;;;20.48;14.40;;;;;;;22.29;61.96;100097.38;4996286;28;20475;-75
2022/09/25 06:27:23;;;;;;;18.70;14.10;;;;;;;22.91;56.76;100105.53;5013404;28;20044;-74
2022/09/25 06:29:50;;;;;;;20.98;14.25;;;;;;;23.44;52.61;100098.03;5014203;28;20041;-74
2022/09/25 06:32:15;;;;;;;19.65;13.43;;;;;;;23.83;49.38;100102.34;5012900;28;20083;-74
2022/09/25 06:34:43;;;;;;;15.90;13.45;;;;;;;24.20;47.00;100090.44;5012966;28;20022;-74
2022/09/25 06:37:11;;;;;;;20.65;14.93;;;;;;;24.63;46.75;100092.09;5014066;28;20029;-76
2022/09/25 06:39:38;;;;;;;19.95;13.68;;;;;;;24.69;43.52;100102.75;5013759;28;20501;-74
2022/09/25 06:42:04;;;;;;;19.25;14.15;;;;;;;24.32;44.01;100105.38;5011536;28;20420;-74
2022/09/25 06:44:33;;;;;;;20.20;13.93;;;;;;;24.42;43.84;100105.50;5013805;28;20022;-74
2022/09/25 06:47:00;;;;;;;16.77;13.63;;;;;;;24.69;44.00;100105.69;5013750;28;20022;-73
2022/09/25 06:49:28;;;;;;;21.98;14.02;;;;;;;24.94;43.18;100109.34;5013580;28;20566;-74
2022/09/25 06:51:54;;;;;;;17.52;14.60;;;;;;;24.92;41.68;100112.13;5013673;28;20072;-74
2022/09/25 06:54:19;;;;;;;18.65;14.07;;;;;;;24.71;42.44;100109.53;5012469;28;20038;-75
2022/09/25 06:56:48;;;;;;;19.27;13.82;;;;;;;24.93;42.21;100108.59;5011619;28;20040;-76
2022/09/25 06:59:14;;;;;;;20.73;14.48;;;;;;;25.14;41.81;100104.47;5013776;28;20030;-75
2022/09/25 07:01:41;;;;;;;17.05;13.93;;;;;;;24.83;40.74;100115.69;5016310;28;20026;-74
2022/09/25 07:04:06;;;;;;;19.10;13.68;;;;;;;25.01;42.51;100115.13;5016333;28;20068;-76
2022/09/25 07:06:33;;;;;;;18.65;13.43;;;;;;;25.45;42.38;100111.53;4999801;28;20109;-76
2022/09/25 07:09:00;;;;;;;14.55;12.40;;;;;;;26.07;39.88;100107.25;5016154;28;20096;-74
2022/09/25 07:11:30;;;;;;;19.45;13.60;;;;;;;26.40;38.45;100112.84;5015152;28;20038;-75
2022/09/25 07:13:57;;;;;;;15.82;12.23;;;;;;;26.50;38.35;100113.66;5016289;28;20541;-75
2022/09/25 07:16:25;;;;;;;17.00;12.07;;;;;;;26.66;37.91;100118.66;4999856;28;20026;-75
2022/09/25 07:18:56;;;;;;;18.05;14.05;;;;;;;26.74;37.46;100113.47;5016217;28;20483;-76
2022/09/25 07:21:23;;;;;;;14.68;12.25;;;;;;;26.47;37.50;100109.78;5016297;28;20088;-76
2022/09/25 07:23:50;;;;;;;16.65;12.85;;;;;;;26.18;38.74;100118.44;4999828;28;20042;-76
2022/09/25 07:26:22;;;;;;;12.68;10.80;;;;;;;26.33;37.98;100117.41;4999902;28;20055;-77
2022/09/25 07:28:56;;;;;;;16.45;12.00;;;;;;;26.15;38.68;100113.78;5017113;28;20089;-76
2022/09/25 07:31:25;;;;;;;14.82;10.77;;;;;;;26.17;38.98;100105.16;5015971;28;20032;-75
2022/09/25 07:33:52;;;;;;;14.35;12.35;;;;;;;26.05;39.08;100103.38;4999253;28;20494;-76
2022/09/25 07:36:18;;;;;;;15.02;11.95;;;;;;;25.86;40.10;100098.19;5015116;28;20502;-74
2022/09/25 07:38:48;;;;;;;14.48;12.50;;;;;;;25.91;40.43;100097.13;4999381;28;20033;-74
2022/09/25 07:41:14;;;;;;;13.68;11.35;;;;;;;25.80;40.98;100100.59;5015909;28;20052;-75
2022/09/25 07:43:42;;;;;;;16.65;12.10;;;;;;;25.84;41.21;100109.72;5015366;28;20115;-74
2022/09/25 07:46:08;;;;;;;14.27;11.77;;;;;;;26.10;40.84;100111.88;5016933;28;20038;-76
2022/09/25 07:48:39;;;;;;;14.77;10.90;;;;;;;26.33;39.96;100112.34;4998033;28;20040;-77
2022/09/25 07:51:07;;;;;;;13.18;11.35;;;;;;;26.44;39.20;100110.22;5017012;28;20111;-76
2022/09/25 07:53:35;;;;;;;15.25;10.27;;;;;;;26.39;39.42;100106.19;4999134;28;20021;-76
2022/09/25 07:56:01;;;;;;;13.63;10.20;;;;;;;26.41;39.94;100099.72;5016779;28;20053;-77
2022/09/25 07:58:28;;;;;;;16.58;10.45;;;;;;;26.25;38.85;100102.91;5016966;28;20025;-77
2022/09/25 08:00:58;;;;;;;13.48;10.43;;;;;;;26.32;38.98;100101.22;4998464;28;20034;-76
2022/09/25 08:03:25;;;;;;;13.70;9.88;;;;;;;26.46;39.28;100101.59;4982717;28;20430;-77
2022/09/25 08:06:02;;;;;;;14.82;9.50;;;;;;;26.49;39.18;100100.38;5013792;28;20057;-75
2022/09/25 08:08:29;;;;;;;13.65;9.73;;;;;;;26.55;40.16;100095.00;5015696;28;20089;-78
2022/09/25 08:11:06;;;;;;;16.25;10.10;;;;;;;26.65;39.49;100089.94;4998720;28;20375;-76
2022/09/25 08:13:33;;;;;;;13.68;9.77;;;;;;;26.66;39.48;100089.34;4998536;28;20363;-74
2022/09/25 08:16:01;;;;;;;11.30;8.73;;;;;;;26.71;38.68;100094.16;5015350;28;20094;-75
2022/09/25 08:18:28;;;;;;;13.52;8.88;;;;;;;26.61;38.91;100083.78;4999322;28;20037;-75
2022/09/25 08:21:03;;;;;;;11.88;8.55;;;;;;;26.48;39.25;100092.97;5016399;28;20030;-75
2022/09/25 08:23:52;;;;;;;10.70;8.88;;;;;;;26.29;39.22;100088.56;5015372;28;20060;-75
2022/09/25 08:26:19;;;;;;;10.68;7.75;;;;;;;26.13;39.94;100078.47;5015218;28;20022;-76
2022/09/25 08:28:45;;;;;;;10.27;7.88;;;;;;;26.11;39.90;100075.38;4983050;28;20137;-78
2022/09/25 08:31:13;;;;;;;7.80;6.38;;;;;;;26.19;39.54;100069.41;5014919;28;20116;-80
2022/09/25 08:33:45;;;;;;;12.63;7.72;;;;;;;26.27;39.94;100067.88;5015433;28;20113;-75
2022/09/25 08:36:10;;;;;;;;;;;;;;;26.36;39.17;100059.75;5015317;28;20032;-77
2022/09/25 08:38:38;;;;;;;8.60;5.87;;;;;;;26.32;39.91;100071.91;5016214;28;19909;-77
2022/09/25 08:41:32;;;;;;;7.07;6.30;;;;;;;26.16;37.74;100071.41;5016394;28;20030;-78
2022/09/25 08:44:04;;;;;;;8.50;5.57;;;;;;;25.81;39.11;100064.84;5015098;28;20026;-77
2022/09/25 08:49:27;;;;;;;6.10;5.50;;;;;;;25.08;39.40;100049.19;5015067;28;20099;-75
2022/09/25 08:52:07;;;;;;;7.82;5.00;;;;;;;24.72;40.34;100046.00;4998219;28;20030;-75
2022/09/25 08:54:33;;;;;;;5.90;4.88;;;;;;;24.30;40.73;100048.94;5014465;28;20391;-74
2022/09/25 08:57:04;;;;;;;7.88;5.10;;;;;;;24.05;41.13;100043.06;5014247;28;20143;-75
2022/09/25 08:59:35;;;;;;;6.22;5.53;;;;;;;23.84;42.06;100036.78;5014376;28;20036;-75
2022/09/25 09:02:13;;;;;;;9.07;5.57;;;;;;;23.69;43.24;100037.63;4997813;28;20368;-74
2022/09/25 09:04:46;;;;;;;8.98;5.57;;;;;;;23.46;43.17;100031.88;4998354;28;20483;-74
2022/09/25 09:07:51;;;;;;;8.50;5.38;;;;;;;23.27;43.88;100025.75;5015093;28;20423;-74
2022/09/25 09:10:40;;;;;;;6.80;5.72;;;;;;;22.82;43.02;100033.25;4997071;28;20037;-74
2022/09/25 09:14:07;;;;;;;10.65;5.68;;;;;;;22.46;46.83;100024.00;5015062;28;20438;-74
2022/09/25 09:16:38;;;;;;;9.98;5.30;;;;;;;22.34;47.96;100011.94;4957325;28;20035;-75
2022/09/25 09:19:05;;;;;;;8.75;5.00;;;;;;;22.39;47.48;100001.47;4972025;28;20027;-74
2022/09/25 09:21:40;;;;;;;8.10;4.90;;;;;;;22.44;46.52;100006.31;4939798;28;20034;-74
2022/09/25 09:24:16;;;;;;;8.32;5.15;;;;;;;22.52;46.73;100015.81;4977811;28;20083;-74
2022/09/25 09:27:07;;;;;;;7.68;5.25;;;;;;;22.55;47.77;100010.97;5012172;28;20492;-75
2022/09/25 09:29:36;;;;;;;5.53;4.38;;;;;;;22.58;46.44;100015.59;5012027;28;20521;-75
2022/09/25 09:32:16;;;;;;;11.48;4.93;;;;;;;22.58;45.56;100009.78;5014202;28;20061;-75
2022/09/25 09:35:27;;;;;;;5.47;4.63;;;;;;;22.57;46.06;100006.09;5014866;28;20387;-75
2022/09/25 09:38:11;;;;;;;5.60;5.00;;;;;;;22.57;46.95;100000.28;5014709;28;20382;-74
2022/09/25 09:40:42;;;;;;;5.72;4.72;;;;;;;22.52;46.10;100004.94;5013374;28;20033;-74
2022/09/25 09:43:30;;;;;;;14.85;4.95;;;;;;;22.44;46.92;100007.09;5014771;28;20025;-74
2022/09/25 09:46:39;;;;;;;7.75;4.47;;;;;;;22.36;45.49;99999.72;5013795;28;20084;-74
2022/09/25 09:49:08;;;;;;;7.15;5.13;;;;;;;22.26;46.34;99995.84;5007427;28;20116;-74
2022/09/25 09:52:00;;;;;;;11.85;5.13;;;;;;;22.23;46.03;99997.78;5014818;28;20026;-74
2022/09/25 09:54:34;;;;;;;6.40;4.30;;;;;;;22.18;47.13;99989.25;5013239;28;20026;-75
2022/09/25 09:57:04;;;;;;;8.52;4.20;;;;;;;22.14;45.64;99991.75;5014882;28;20034;-74
2022/09/25 09:59:45;;;;;;;7.28;5.03;;;;;;;22.06;45.72;99992.53;5013454;28;20036;-75
2022/09/25 10:02:50;;;;;;;5.77;4.47;;;;;;;21.90;46.36;99984.38;4996834;28;20457;-75
2022/09/25 10:05:25;;;;;;;4.95;3.97;;;;;;;21.78;46.41;99983.19;5013130;28;20033;-75
2022/09/25 10:07:51;;;;;;;7.45;4.10;;;;;;;21.74;47.00;99983.56;5013240;28;20061;-75
2022/09/25 10:10:19;;;;;;;5.20;4.70;;;;;;;21.78;47.66;99989.03;5013523;28;20033;-74
2022/09/25 10:12:50;;;;;;;6.50;4.10;;;;;;;21.75;48.45;99982.22;5013465;28;20035;-74
2022/09/25 10:15:27;;;;;;;6.53;4.40;;;;;;;21.74;49.78;99974.84;5013436;28;20041;-74
2022/09/25 10:17:54;;;;;;;4.45;4.03;;;;;;;21.72;48.43;99977.56;5013173;28;20069;-75
2022/09/25 10:20:22;;;;;;;4.95;4.18;;;;;;;21.71;48.02;99978.91;4996684;28;20069;-75
2022/09/25 10:22:52;;;;;;;4.07;3.53;;;;;;;21.70;47.57;99971.53;4996831;28;20089;-74
2022/09/25 10:25:38;;;;;;;4.55;3.35;;;;;;;21.70;47.26;99974.44;4980332;28;20409;-73
2022/09/25 10:28:27;;;;;;;8.32;3.97;;;;;;;21.66;46.97;99963.22;5012656;28;20062;-74
2022/09/25 10:30:54;;;;;;;4.05;3.65;;;;;;;21.65;48.27;99967.47;5012723;28;20089;-74
2022/09/25 10:33:25;;;;;;;5.50;3.72;;;;;;;21.61;45.92;99963.38;4997026;28;20491;-74
2022/09/25 10:35:53;;;;;;;4.53;3.85;;;;;;;21.46;46.12;99969.94;5012390;28;20029;-75
2022/09/25 10:38:33;;;;;;;6.20;3.72;;;;;;;21.31;45.79;99966.97;5012821;28;20033;-74
2022/09/25 10:41:12;;;;;;;5.40;4.00;;;;;;;21.17;47.57;99957.63;5012695;28;20542;-75
2022/09/25 10:43:58;;;;;;;5.32;3.97;;;;;;;21.12;47.62;99967.31;5012972;28;20048;-73
2022/09/25 10:52:09;;;;;;;8.02;3.85;;;;;;;20.71;45.84;99956.66;5013218;28;20438;-75
2022/09/25 10:54:35;;;;;;;5.60;3.85;;;;;;;20.51;46.75;99954.56;4996457;28;20120;-74
2022/09/25 10:57:33;;;;;;;4.15;3.75;;;;;;;20.39;48.91;99944.63;4996162;28;20114;-73
2022/09/25 11:00:00;;;;;;;5.32;4.07;;;;;;;20.25;49.27;99943.94;5012651;28;20112;-75
2022/09/25 11:02:59;;;;;;;5.50;3.95;;;;;;;20.04;50.04;99946.13;5012592;28;20056;-74
2022/09/25 11:05:28;;;;;;;5.47;4.47;;;;;;;19.91;51.57;99935.34;5012214;28;20076;-74
2022/09/25 11:07:57;;;;;;;6.63;4.05;;;;;;;19.90;52.00;99933.81;4996310;28;20037;-75
2022/09/25 11:10:47;;;;;;;5.65;4.03;;;;;;;19.85;51.66;99919.47;4979870;28;20029;-74
2022/09/25 11:13:23;;;;;;;5.97;4.80;;;;;;;19.73;52.33;99927.66;5012374;28;20076;-74
2022/09/25 11:15:52;;;;;;;6.63;4.35;;;;;;;19.64;53.45;99933.19;4996548;28;20034;-74
2022/09/25 11:18:38;;;;;;;6.25;4.30;;;;;;;19.55;52.06;99925.75;4996381;28;20034;-74
2022/09/25 11:21:08;;;;;;;8.60;5.13;;;;;;;19.47;54.51;99914.09;5013746;28;20029;-75
2022/09/25 11:23:40;;;;;;;6.47;4.32;;;;;;;19.51;55.25;99920.31;4980015;28;20081;-75
2022/09/25 11:26:11;;;;;;;4.32;3.65;;;;;;;19.56;54.09;99924.41;5012257;28;20108;-74
2022/09/25 11:28:48;;;;;;;5.28;3.60;;;;;;;19.51;54.50;99920.31;5012167;28;20046;-74
2022/09/25 11:31:40;;;;;;;6.13;3.58;;;;;;;19.54;54.82;99921.31;5013510;28;20045;-75
2022/09/25 11:34:53;;;;;;;5.28;3.28;;;;;;;19.53;53.06;99922.66;5013373;28;20132;-74
2022/09/25 11:37:41;;;;;;;4.55;3.40;;;;;;;19.56;51.85;99923.66;5003585;28;20048;-74
2022/09/25 11:43:18;;;;;;;4.82;3.17;;;;;;;19.50;52.07;99915.88;5012759;28;20205;-75
2022/09/25 11:45:47;;;;;;;3.83;3.38;;;;;;;19.50;54.84;99910.06;4996750;28;20058;-75
2022/09/25 11:48:39;;;;;;;6.10;3.40;;;;;;;19.57;53.63;99907.78;5017161;28;20034;-75
2022/09/25 11:51:26;;;;;;;3.50;3.20;;;;;;;19.53;51.15;99913.94;5015903;28;20030;-74
2022/09/25 11:54:06;;;;;;;6.75;4.22;;;;;;;19.49;50.71;99899.81;5016961;28;20044;-74
2022/09/25 11:56:47;;;;;;;3.30;2.95;;;;;;;19.44;50.11;99908.66;5016098;28;20420;-73
2022/09/25 11:59:41;;;;;;;4.18;3.78;;;;;;;19.42;50.46;99896.84;5017119;28;20517;-74
2022/09/25 12:02:29;;;;;;;4.18;3.00;;;;;;;19.37;50.82;99897.75;5016644;28;20026;-75
2022/09/25 12:04:56;;;;;;;4.40;2.72;;;;;;;19.37;53.05;99889.06;4999040;28;20156;-75
2022/09/25 12:08:18;;;;;;;8.82;3.17;;;;;;;19.42;53.31;99896.84;5015470;28;20052;-75